Time;durP1;ratioP1;P1;durP2;ratioP2;P2;SDS_P1;SDS_P2;PMS_P1;PMS_P2;Temp;Humidity;BMP_temperature;BMP_pressure;BME280_temperature;BME280_humidity;BME280_pressure;Samples;Min_cycle;Max_cycle;Signal;HPM_P1;HPM_P2
2022/12/23 00:01:15;;;;;;;1.58;1.15;;;20.70;64.40;;;;;;5025443;28;20527;-45
2022/12/23 00:03:43;;;;;;;1.10;0.88;;;20.80;64.60;;;;;;5028626;28;20250;-45
2022/12/23 00:06:12;;;;;;;2.20;1.00;;;20.90;64.30;;;;;;5031226;28;20205;-44
2022/12/23 00:08:39;;;;;;;1.25;1.02;;;21.00;64.90;;;;;;5028916;28;20219;-42
2022/12/23 00:11:10;;;;;;;1.67;1.30;;;21.00;63.90;;;;;;5019913;28;20201;-45
2022/12/23 00:16:20;;;;;;;1.42;1.02;;;21.00;63.70;;;;;;5019199;28;20199;-45
2022/12/23 00:18:48;;;;;;;1.30;1.00;;;20.90;63.50;;;;;;5021675;28;20661;-46
2022/12/23 00:21:17;;;;;;;1.58;1.08;;;21.00;63.70;;;;;;5020532;28;20197;-45
2022/12/23 00:23:46;;;;;;;1.20;1.00;;;20.90;63.70;;;;;;5017614;28;20203;-44
2022/12/23 00:26:15;;;;;;;1.10;1.00;;;20.90;63.70;;;;;;5018826;28;20679;-50
2022/12/23 00:28:41;;;;;;;1.15;0.90;;;20.90;63.70;;;;;;5025660;28;20307;-45
2022/12/23 00:31:09;;;;;;;1.40;1.13;;;20.90;63.80;;;;;;5023688;28;20608;-46
2022/12/23 00:33:37;;;;;;;1.55;1.00;;;20.80;63.70;;;;;;5023521;28;20204;-45
2022/12/23 00:36:13;;;;;;;1.10;1.00;;;20.80;63.80;;;;;;5025189;28;20835;-44
2022/12/23 00:44:20;;;;;;;1.17;0.90;;;20.70;64.10;;;;;;4966279;28;20288;-47
2022/12/23 00:46:46;;;;;;;1.42;0.98;;;20.60;64.10;;;;;;5010453;28;20193;-44
2022/12/23 00:52:00;;;;;;;1.42;1.33;;;20.60;64.20;;;;;;5026989;28;20350;-44
2022/12/23 00:54:27;;;;;;;1.30;1.00;;;20.60;64.30;;;;;;5017339;28;20194;-41
2022/12/23 00:56:53;;;;;;;1.20;0.95;;;20.50;64.20;;;;;;5028543;28;20192;-43
2022/12/23 00:59:20;;;;;;;1.50;1.20;;;20.50;64.30;;;;;;5026255;28;20242;-45
2022/12/23 01:07:16;;;;;;;1.73;1.02;;;20.40;64.50;;;;;;5028307;28;20585;-45
2022/12/23 01:09:43;;;;;;;1.30;0.90;;;20.40;64.50;;;;;;5024713;28;22889;-43
2022/12/23 01:12:09;;;;;;;1.83;1.27;;;20.40;64.60;;;;;;5023062;28;20671;-47
2022/12/23 01:14:37;;;;;;;1.10;0.90;;;20.40;64.60;;;;;;5025165;28;20196;-44
2022/12/23 01:17:05;;;;;;;1.80;1.10;;;20.40;64.70;;;;;;5022045;28;20199;-44
2022/12/23 01:19:31;;;;;;;8.27;1.17;;;20.40;64.70;;;;;;5023581;28;20300;-44
2022/12/23 01:21:58;;;;;;;1.73;1.10;;;20.40;64.90;;;;;;5026719;28;20196;-41
2022/12/23 01:24:29;;;;;;;1.40;1.25;;;20.60;65.00;;;;;;5023783;28;20208;-41
2022/12/23 01:26:56;;;;;;;1.10;0.90;;;20.70;64.80;;;;;;5026140;28;20227;-43
2022/12/23 01:29:22;;;;;;;2.67;1.10;;;20.80;64.60;;;;;;5029258;28;20212;-44
2022/12/23 01:31:49;;;;;;;1.55;1.25;;;20.80;64.60;;;;;;5027238;28;20637;-43
2022/12/23 01:34:16;;;;;;;3.17;1.15;;;20.80;64.60;;;;;;5026388;28;20262;-43
2022/12/23 01:36:43;;;;;;;1.48;1.10;;;20.70;64.40;;;;;;5029405;28;20199;-43
2022/12/23 01:39:09;;;;;;;1.20;1.08;;;20.70;64.50;;;;;;5027582;28;20608;-43
2022/12/23 01:44:48;;;;;;;3.08;1.33;;;20.70;64.40;;;;;;5029293;28;20223;-44
2022/12/23 01:47:20;;;;;;;1.95;1.00;;;20.70;64.50;;;;;;5023734;28;20261;-42
2022/12/23 01:49:48;;;;;;;1.20;1.00;;;20.60;64.40;;;;;;5025035;28;20282;-44
2022/12/23 01:52:15;;;;;;;1.60;1.20;;;20.60;64.50;;;;;;5017373;28;20192;-46
2022/12/23 01:54:42;;;;;;;0.93;0.82;;;20.60;64.50;;;;;;5020973;28;20242;-42
2022/12/23 01:57:11;;;;;;;1.48;1.15;;;20.50;64.50;;;;;;5028032;28;20250;-44
2022/12/23 02:05:08;;;;;;;1.20;0.95;;;20.50;64.60;;;;;;5024126;28;20671;-47
2022/12/23 02:10:22;;;;;;;1.90;1.20;;;20.40;64.60;;;;;;5024627;28;20226;-39
2022/12/23 02:12:54;;;;;;;1.30;1.20;;;20.40;64.60;;;;;;5022483;28;20263;-44
2022/12/23 02:18:52;;;;;;;2.03;0.95;;;20.40;64.70;;;;;;5015768;28;20204;-40
2022/12/23 02:21:50;;;;;;;1.65;1.10;;;20.40;64.70;;;;;;5026419;28;20188;-45
2022/12/23 02:24:44;;;;;;;1.40;1.00;;;20.30;65.40;;;;;;5023065;28;20669;-43
2022/12/23 02:27:15;;;;;;;1.75;1.10;;;20.30;64.60;;;;;;5027102;28;20243;-44
2022/12/23 02:30:07;;;;;;;1.70;1.50;;;20.40;64.70;;;;;;5020638;28;20683;-45
2022/12/23 02:32:43;;;;;;;1.38;0.90;;;20.30;64.70;;;;;;5028694;28;20204;-44
2022/12/23 02:35:14;;;;;;;2.22;1.40;;;20.30;65.00;;;;;;5026987;28;20245;-44
2022/12/23 02:37:50;;;;;;;1.08;0.95;;;20.40;64.70;;;;;;5027338;28;20247;-44
2022/12/23 02:40:28;;;;;;;1.27;1.10;;;20.60;64.50;;;;;;5023689;28;20197;-43
2022/12/23 02:43:03;;;;;;;1.67;1.05;;;20.60;64.10;;;;;;5027105;28;20207;-43
2022/12/23 02:45:36;;;;;;;1.08;0.80;;;20.60;64.00;;;;;;5022370;28;20208;-44
2022/12/23 02:48:09;;;;;;;1.83;0.93;;;20.60;64.00;;;;;;5022615;28;20192;-42
2022/12/23 02:50:40;;;;;;;1.52;1.02;;;20.60;64.00;;;;;;5023980;28;20263;-44
2022/12/23 02:53:12;;;;;;;1.75;1.00;;;20.50;63.90;;;;;;5020138;28;20246;-44
2022/12/23 02:55:41;;;;;;;1.40;1.20;;;20.50;64.00;;;;;;5024863;28;20718;-40
2022/12/23 02:58:12;;;;;;;2.85;1.38;;;20.50;64.00;;;;;;5016761;28;20201;-41
2022/12/23 03:00:41;;;;;;;2.85;2.45;;;20.50;64.10;;;;;;5015101;28;20197;-42
2022/12/23 03:03:11;;;;;;;1.02;0.90;;;20.50;64.10;;;;;;5023782;28;20412;-43
2022/12/23 03:05:41;;;;;;;1.10;0.85;;;20.50;64.10;;;;;;5023791;28;20196;-41
2022/12/23 03:08:13;;;;;;;1.00;0.80;;;20.40;64.10;;;;;;5026303;28;20234;-44
2022/12/23 03:10:51;;;;;;;1.10;1.00;;;20.40;64.20;;;;;;5014948;28;20591;-45
2022/12/23 03:13:28;;;;;;;1.10;0.95;;;20.40;64.20;;;;;;5025827;28;20215;-43
2022/12/23 03:16:07;;;;;;;1.10;0.90;;;20.40;64.30;;;;;;5027611;28;20261;-46
2022/12/23 03:18:46;;;;;;;2.08;1.42;;;20.30;64.30;;;;;;5022255;28;20200;-44
2022/12/23 03:21:20;;;;;;;1.33;0.90;;;20.30;64.30;;;;;;5027184;28;20196;-42
2022/12/23 03:23:53;;;;;;;2.10;0.98;;;20.30;64.30;;;;;;5017589;28;20272;-43
2022/12/23 03:26:25;;;;;;;1.40;0.90;;;20.30;64.40;;;;;;5022152;28;20211;-48
2022/12/23 03:28:56;;;;;;;1.10;0.93;;;20.20;64.30;;;;;;5020873;28;20193;-46
2022/12/23 03:31:25;;;;;;;1.00;0.75;;;20.20;64.40;;;;;;5020019;28;20199;-43
2022/12/23 03:33:59;;;;;;;1.92;1.40;;;20.20;64.50;;;;;;5024500;28;20267;-46
2022/12/23 03:36:31;;;;;;;1.48;1.10;;;20.20;64.50;;;;;;5022122;28;20262;-44
2022/12/23 03:38:59;;;;;;;1.77;1.00;;;20.20;64.50;;;;;;5023542;28;20263;-47
2022/12/23 03:41:31;;;;;;;1.50;1.20;;;20.20;64.60;;;;;;5030136;28;20199;-43
2022/12/23 03:44:04;;;;;;;1.42;0.90;;;20.20;64.60;;;;;;5027185;28;20734;-44
2022/12/23 03:46:34;;;;;;;1.30;1.20;;;20.10;64.50;;;;;;5026580;28;20538;-48
2022/12/23 03:49:07;;;;;;;1.10;1.00;;;20.10;64.50;;;;;;5026189;28;20192;-52
2022/12/23 03:51:44;;;;;;;1.33;1.23;;;20.20;65.00;;;;;;5030237;28;20193;-46
2022/12/23 03:54:16;;;;;;;1.30;1.00;;;20.30;65.40;;;;;;5027802;28;20554;-49
2022/12/23 03:56:46;;;;;;;1.10;0.98;;;20.40;64.20;;;;;;5030704;28;20204;-47
2022/12/23 03:59:17;;;;;;;1.10;0.82;;;20.40;64.00;;;;;;5028831;28;20196;-49
2022/12/23 04:01:53;;;;;;;1.38;0.95;;;20.50;63.90;;;;;;5024466;28;20200;-43
2022/12/23 04:04:25;;;;;;;1.30;0.88;;;20.40;63.80;;;;;;5027764;28;20192;-45
2022/12/23 04:06:57;;;;;;;1.10;1.00;;;20.50;63.90;;;;;;5024395;28;20247;-44
2022/12/23 04:09:27;;;;;;;1.20;1.05;;;20.40;63.90;;;;;;5011664;28;20223;-46
2022/12/23 04:11:54;;;;;;;1.65;1.30;;;20.40;63.90;;;;;;5018622;28;20246;-41
2022/12/23 04:14:22;;;;;;;1.05;0.90;;;20.40;63.90;;;;;;5019680;28;20204;-44
2022/12/23 04:16:53;;;;;;;1.25;1.15;;;20.40;64.00;;;;;;5021074;28;20648;-46
2022/12/23 04:19:21;;;;;;;1.40;1.00;;;20.30;64.70;;;;;;5016885;28;20234;-41
2022/12/23 04:21:48;;;;;;;1.98;1.20;;;20.30;63.90;;;;;;5016708;28;20620;-43
2022/12/23 04:24:15;;;;;;;1.20;1.05;;;20.30;64.00;;;;;;5014030;28;20722;-43
2022/12/23 04:26:41;;;;;;;1.33;0.88;;;20.30;64.10;;;;;;5024441;28;20192;-44
2022/12/23 04:29:08;;;;;;;1.52;0.90;;;20.20;64.80;;;;;;5022798;28;20207;-40
2022/12/23 04:31:35;;;;;;;1.00;0.90;;;20.20;64.10;;;;;;5019528;28;20204;-44
2022/12/23 04:34:01;;;;;;;1.70;1.10;;;20.20;64.10;;;;;;5021656;28;20239;-46
2022/12/23 04:36:29;;;;;;;1.10;0.95;;;20.20;64.10;;;;;;5015440;28;20256;-45
2022/12/23 04:38:56;;;;;;;1.45;1.13;;;20.20;64.20;;;;;;5022029;28;20200;-45
2022/12/23 04:41:23;;;;;;;1.30;0.88;;;20.10;64.10;;;;;;5018535;28;20247;-42
2022/12/23 04:43:50;;;;;;;1.45;0.98;;;20.20;64.30;;;;;;5027470;28;20192;-44
2022/12/23 04:46:16;;;;;;;1.35;0.80;;;20.10;64.30;;;;;;5028847;28;20192;-40
2022/12/23 04:48:43;;;;;;;1.00;0.90;;;20.10;64.30;;;;;;5029263;28;20231;-44
2022/12/23 04:51:10;;;;;;;1.40;1.20;;;20.10;64.30;;;;;;5032714;28;20211;-44
2022/12/23 04:53:38;;;;;;;1.20;1.08;;;20.00;64.30;;;;;;5025400;28;20234;-46
2022/12/23 04:56:05;;;;;;;1.52;1.23;;;20.00;64.30;;;;;;5037898;28;20195;-46
2022/12/23 04:58:31;;;;;;;1.20;1.10;;;20.00;64.30;;;;;;5028608;28;20243;-44
2022/12/23 05:01:02;;;;;;;1.13;0.90;;;20.00;64.40;;;;;;5024812;28;20196;-44
2022/12/23 05:03:29;;;;;;;1.27;0.80;;;20.00;64.40;;;;;;5022023;28;20200;-43
2022/12/23 05:05:55;;;;;;;1.45;1.00;;;20.10;64.60;;;;;;5035280;28;20208;-44
2022/12/23 05:08:22;;;;;;;1.20;1.00;;;20.40;64.00;;;;;;5023511;28;20204;-40
2022/12/23 05:10:50;;;;;;;1.33;0.90;;;20.60;63.60;;;;;;5022684;28;20553;-44
2022/12/23 05:13:17;;;;;;;1.10;0.90;;;20.70;63.10;;;;;;5023533;28;20208;-46
2022/12/23 05:15:44;;;;;;;1.02;0.93;;;20.90;62.80;;;;;;5026017;28;20201;-43
2022/12/23 05:18:11;;;;;;;1.33;1.02;;;21.00;62.30;;;;;;5022193;28;20297;-41
2022/12/23 05:20:38;;;;;;;1.20;0.80;;;21.10;62.10;;;;;;5022908;28;20225;-39
2022/12/23 05:23:05;;;;;;;1.00;0.90;;;21.30;61.80;;;;;;5026553;28;20196;-45
2022/12/23 05:25:32;;;;;;;1.00;0.90;;;21.40;61.60;;;;;;5026765;28;20196;-44
2022/12/23 05:28:01;;;;;;;1.20;0.90;;;21.50;61.40;;;;;;5026174;28;20201;-43
2022/12/23 05:30:27;;;;;;;1.30;0.85;;;21.60;61.10;;;;;;5020584;28;20270;-40
2022/12/23 05:32:54;;;;;;;1.20;1.00;;;21.60;60.70;;;;;;5022876;28;20216;-41
2022/12/23 05:35:22;;;;;;;1.02;0.85;;;21.60;60.70;;;;;;5027728;28;20222;-46
2022/12/23 05:37:48;;;;;;;2.10;1.00;;;21.60;60.90;;;;;;5019837;28;20195;-47
2022/12/23 05:40:15;;;;;;;1.25;1.10;;;21.60;61.00;;;;;;5012340;28;20204;-46
2022/12/23 05:42:42;;;;;;;1.27;0.95;;;21.50;61.10;;;;;;5027243;28;20602;-40
2022/12/23 05:45:10;;;;;;;0.90;0.80;;;21.60;61.10;;;;;;5019251;28;20602;-44
2022/12/23 05:47:37;;;;;;;1.80;1.00;;;21.70;60.80;;;;;;5021785;28;20676;-46
2022/12/23 05:50:04;;;;;;;1.10;0.90;;;21.80;60.60;;;;;;5026881;28;20216;-43
2022/12/23 05:52:31;;;;;;;1.10;0.80;;;21.80;60.60;;;;;;5025750;28;20201;-44
2022/12/23 05:54:58;;;;;;;1.13;0.90;;;21.90;60.50;;;;;;5023316;28;20527;-43
2022/12/23 05:57:24;;;;;;;1.17;0.98;;;22.00;60.40;;;;;;5026142;28;20270;-43
2022/12/23 05:59:51;;;;;;;1.00;0.80;;;22.00;60.20;;;;;;5030116;28;20646;-48
2022/12/23 06:02:20;;;;;;;1.20;0.90;;;22.00;60.20;;;;;;5023196;28;20200;-40
2022/12/23 06:04:47;;;;;;;1.00;0.80;;;21.90;60.10;;;;;;5025695;28;20204;-46
2022/12/23 06:07:14;;;;;;;0.90;0.70;;;21.80;60.30;;;;;;5028872;28;20652;-49
2022/12/23 06:09:40;;;;;;;0.93;0.70;;;21.80;60.50;;;;;;5015904;28;20607;-44
2022/12/23 06:12:07;;;;;;;1.05;0.90;;;21.70;60.50;;;;;;5032236;28;20205;-49
2022/12/23 06:14:34;;;;;;;1.20;1.00;;;21.70;60.70;;;;;;5025053;28;20219;-40
2022/12/23 06:17:00;;;;;;;0.90;0.75;;;21.70;60.80;;;;;;5022492;28;20198;-44
2022/12/23 06:19:28;;;;;;;0.80;0.60;;;21.90;60.60;;;;;;5022936;28;20216;-45
2022/12/23 06:21:55;;;;;;;1.40;0.85;;;22.00;60.40;;;;;;5020275;28;20209;-47
2022/12/23 06:24:22;;;;;;;1.10;0.90;;;21.90;60.10;;;;;;5018650;28;20196;-42
2022/12/23 06:26:48;;;;;;;0.90;0.70;;;22.00;60.20;;;;;;5019537;28;20199;-43
2022/12/23 06:29:15;;;;;;;0.90;0.70;;;22.10;60.10;;;;;;5024614;28;20188;-44
2022/12/23 06:31:42;;;;;;;1.05;0.90;;;22.20;60.00;;;;;;5024201;28;20270;-47
2022/12/23 06:34:08;;;;;;;1.20;0.80;;;22.20;59.80;;;;;;5018339;28;20684;-42
2022/12/23 06:36:36;;;;;;;1.00;0.80;;;22.10;59.90;;;;;;5027083;28;20596;-48
2022/12/23 06:39:03;;;;;;;1.35;0.85;;;22.10;59.90;;;;;;5021011;28;20868;-42
2022/12/23 06:41:30;;;;;;;1.00;0.90;;;22.00;60.00;;;;;;5020243;28;20213;-50
2022/12/23 06:43:56;;;;;;;1.10;0.75;;;22.00;60.20;;;;;;5023347;28;20196;-42
2022/12/23 06:46:23;;;;;;;1.10;0.80;;;21.90;60.30;;;;;;5027362;28;20276;-47
2022/12/23 06:48:50;;;;;;;1.27;0.98;;;21.90;60.40;;;;;;5025050;28;20205;-51
2022/12/23 06:51:16;;;;;;;1.05;0.85;;;21.90;60.50;;;;;;5023160;28;20315;-46
2022/12/23 06:53:44;;;;;;;1.02;0.90;;;21.90;60.70;;;;;;5021970;28;20194;-43
2022/12/23 06:56:11;;;;;;;1.50;1.13;;;21.90;60.50;;;;;;5026044;28;20203;-44
2022/12/23 06:58:38;;;;;;;0.90;0.70;;;22.00;60.20;;;;;;5020400;28;20200;-49
2022/12/23 07:01:05;;;;;;;1.20;1.02;;;22.10;60.10;;;;;;5019931;28;20193;-47
2022/12/23 07:03:31;;;;;;;1.20;0.88;;;22.10;60.00;;;;;;5027128;28;20220;-43
2022/12/23 07:05:58;;;;;;;1.30;0.90;;;22.20;59.90;;;;;;5022515;28;20199;-46
2022/12/23 07:08:25;;;;;;;0.90;0.80;;;22.20;59.80;;;;;;5022657;28;20193;-42
2022/12/23 07:10:59;;;;;;;1.10;0.90;;;22.30;59.80;;;;;;5023444;28;20216;-43
2022/12/23 07:13:26;;;;;;;1.10;0.80;;;22.20;59.70;;;;;;5019400;28;20197;-45
2022/12/23 07:15:52;;;;;;;1.20;0.90;;;22.20;59.80;;;;;;5027201;28;20199;-45
2022/12/23 07:18:21;;;;;;;0.88;0.70;;;22.20;59.90;;;;;;5026462;28;20200;-39
2022/12/23 07:20:47;;;;;;;1.15;0.80;;;22.10;59.90;;;;;;5021150;28;20298;-42
2022/12/23 07:23:14;;;;;;;1.15;0.90;;;22.10;60.00;;;;;;5020596;28;20205;-43
2022/12/23 07:25:41;;;;;;;1.15;1.00;;;22.00;60.90;;;;;;5022343;28;20196;-39
2022/12/23 07:28:09;;;;;;;1.00;0.80;;;22.00;60.30;;;;;;5017089;28;20201;-45
2022/12/23 07:30:36;;;;;;;1.15;0.88;;;22.00;60.20;;;;;;5015874;28;20236;-44
2022/12/23 07:33:02;;;;;;;1.10;1.00;;;22.10;60.20;;;;;;5020388;28;20688;-39
2022/12/23 07:35:29;;;;;;;0.90;0.75;;;22.10;60.10;;;;;;5015830;28;20197;-44
2022/12/23 07:37:56;;;;;;;1.30;1.00;;;22.20;60.80;;;;;;5022295;28;20188;-42
2022/12/23 07:40:23;;;;;;;1.70;1.08;;;22.20;59.90;;;;;;5010617;28;20546;-45
2022/12/23 07:42:50;;;;;;;1.02;0.80;;;22.20;59.80;;;;;;5020863;28;20201;-39
2022/12/23 07:45:18;;;;;;;1.08;0.80;;;22.30;59.80;;;;;;5024538;28;21195;-41
2022/12/23 07:47:45;;;;;;;1.02;0.80;;;22.30;59.70;;;;;;5022500;28;20207;-48
2022/12/23 07:50:12;;;;;;;1.02;0.80;;;22.30;59.70;;;;;;5019823;28;20196;-44
2022/12/23 07:52:39;;;;;;;1.00;0.90;;;22.20;59.70;;;;;;5020394;28;20196;-45
2022/12/23 07:55:06;;;;;;;1.00;0.88;;;22.20;59.80;;;;;;5019544;28;20518;-42
2022/12/23 07:57:36;;;;;;;0.98;0.80;;;22.20;59.90;;;;;;5023814;28;20633;-46
2022/12/23 08:00:06;;;;;;;1.10;0.80;;;22.10;60.10;;;;;;5029144;28;20563;-39
2022/12/23 08:02:34;;;;;;;1.05;0.80;;;22.00;60.10;;;;;;5020594;28;20724;-39
2022/12/23 08:05:01;;;;;;;1.10;0.80;;;22.00;60.20;;;;;;5029121;28;20197;-45
2022/12/23 08:07:28;;;;;;;1.02;0.80;;;22.10;60.30;;;;;;5022119;28;20263;-43
2022/12/23 08:09:55;;;;;;;1.00;0.80;;;22.10;60.10;;;;;;5026424;28;20197;-42
2022/12/23 08:12:21;;;;;;;1.40;0.80;;;22.20;60.10;;;;;;5020778;28;20232;-46
2022/12/23 08:14:50;;;;;;;1.25;0.80;;;22.20;60.00;;;;;;5018129;28;20271;-41
2022/12/23 08:17:16;;;;;;;0.93;0.80;;;22.20;59.90;;;;;;5021570;28;20731;-42
2022/12/23 08:19:44;;;;;;;1.20;0.80;;;22.20;59.80;;;;;;5025752;28;20278;-46
2022/12/23 08:22:11;;;;;;;1.13;0.85;;;22.30;59.80;;;;;;5024219;28;20196;-42
2022/12/23 08:24:38;;;;;;;1.55;0.80;;;22.30;59.70;;;;;;5030525;28;22312;-43
2022/12/23 08:27:04;;;;;;;0.98;0.75;;;22.30;59.80;;;;;;5022592;28;20219;-42
2022/12/23 08:29:31;;;;;;;1.00;0.90;;;22.30;59.80;;;;;;5020161;28;20205;-48
2022/12/23 08:31:58;;;;;;;1.05;0.77;;;22.20;59.80;;;;;;5018639;28;20224;-45
2022/12/23 08:34:25;;;;;;;1.20;0.70;;;22.20;60.00;;;;;;5019163;28;20196;-44
2022/12/23 08:36:53;;;;;;;0.95;0.70;;;22.10;60.00;;;;;;5014701;28;20814;-42
2022/12/23 08:39:20;;;;;;;1.00;0.90;;;22.10;60.20;;;;;;5019716;28;20656;-47
2022/12/23 08:41:48;;;;;;;1.30;1.02;;;22.10;60.30;;;;;;5017384;28;20254;-44
2022/12/23 08:44:15;;;;;;;1.00;0.70;;;22.10;60.30;;;;;;5017329;28;20557;-45
2022/12/23 08:46:42;;;;;;;1.00;0.80;;;22.10;60.30;;;;;;5025110;28;20213;-40
2022/12/23 08:49:09;;;;;;;2.22;1.00;;;22.10;60.30;;;;;;5018209;28;20188;-44
2022/12/23 08:51:38;;;;;;;0.90;0.70;;;22.20;60.30;;;;;;5029723;28;20217;-46
2022/12/23 08:54:06;;;;;;;1.27;0.90;;;22.20;60.20;;;;;;5024979;28;20193;-49
2022/12/23 08:56:35;;;;;;;1.60;0.73;;;22.20;60.20;;;;;;5027186;28;20193;-42
2022/12/23 08:59:02;;;;;;;4.03;1.17;;;22.20;60.30;;;;;;5019725;28;20454;-52
2022/12/23 09:01:32;;;;;;;2.65;1.00;;;22.30;60.90;;;;;;5021452;28;20249;-41
2022/12/23 09:04:01;;;;;;;5.47;1.20;;;22.40;60.80;;;;;;5015101;28;20215;-58
2022/12/23 09:06:29;;;;;;;2.10;1.00;;;22.50;60.90;;;;;;5026167;28;20210;-50
2022/12/23 09:08:56;;;;;;;1.15;1.00;;;22.50;60.90;;;;;;5025461;28;20275;-45
2022/12/23 09:11:26;;;;;;;1.10;1.00;;;22.50;60.80;;;;;;5013922;28;20275;-48
2022/12/23 09:13:53;;;;;;;5.13;1.45;;;22.30;60.90;;;;;;5022293;28;20657;-49
2022/12/23 09:16:20;;;;;;;6.97;1.30;;;22.20;61.20;;;;;;5023653;28;20593;-44
2022/12/23 09:18:47;;;;;;;1.20;1.00;;;22.20;61.50;;;;;;5023643;28;20200;-49
2022/12/23 09:21:21;;;;;;;1.00;0.88;;;22.20;61.50;;;;;;5021501;28;20199;-47
2022/12/23 09:23:48;;;;;;;1.55;0.98;;;22.20;61.40;;;;;;5013602;28;20259;-42
2022/12/23 09:26:18;;;;;;;2.75;0.80;;;22.20;61.20;;;;;;5015436;28;20196;-50
2022/12/23 09:28:46;;;;;;;1.20;1.05;;;22.20;61.10;;;;;;5011384;28;20208;-49
2022/12/23 09:31:13;;;;;;;1.10;0.90;;;22.30;61.00;;;;;;5022900;28;20209;-49
2022/12/23 09:33:40;;;;;;;1.00;0.88;;;22.30;60.90;;;;;;5014814;28;20246;-45
2022/12/23 09:36:07;;;;;;;0.90;0.77;;;22.30;60.80;;;;;;5016831;28;20202;-51
2022/12/23 09:38:34;;;;;;;0.95;0.80;;;22.40;60.80;;;;;;5022039;28;20427;-40
2022/12/23 09:41:03;;;;;;;1.00;0.90;;;22.40;60.80;;;;;;5019159;28;20205;-48
2022/12/23 09:43:41;;;;;;;1.10;0.90;;;22.30;60.60;;;;;;5028717;28;20197;-48
2022/12/23 09:46:16;;;;;;;0.90;0.80;;;22.30;60.70;;;;;;5019137;28;20205;-43
2022/12/23 09:48:50;;;;;;;1.98;0.90;;;22.20;60.70;;;;;;5019248;28;20201;-50
2022/12/23 09:51:22;;;;;;;1.17;1.05;;;22.20;60.90;;;;;;5020909;28;20220;-51
2022/12/23 09:53:55;;;;;;;1.00;0.80;;;22.10;60.90;;;;;;5016199;28;20272;-48
2022/12/23 09:56:27;;;;;;;1.10;0.90;;;22.10;61.00;;;;;;5017919;28;20192;-46
2022/12/23 09:59:07;;;;;;;1.00;0.80;;;22.00;61.10;;;;;;5018734;28;20563;-46
2022/12/23 10:01:40;;;;;;;1.02;0.90;;;21.90;61.20;;;;;;5022995;28;20259;-47
2022/12/23 10:04:33;;;;;;;1.27;0.90;;;21.90;61.40;;;;;;5022789;28;20192;-49
2022/12/23 10:07:17;;;;;;;1.10;0.90;;;21.90;61.40;;;;;;5013221;28;20255;-45
2022/12/23 10:09:46;;;;;;;1.20;0.80;;;21.90;61.50;;;;;;5018673;28;20490;-49
2022/12/23 10:12:18;;;;;;;1.00;0.80;;;21.90;61.50;;;;;;5023882;28;20286;-50
2022/12/23 10:14:47;;;;;;;1.42;1.00;;;22.00;61.30;;;;;;5022509;28;20200;-50
2022/12/23 10:17:24;;;;;;;1.30;0.80;;;22.10;61.00;;;;;;5018591;28;20200;-45
2022/12/23 10:19:53;;;;;;;1.00;0.80;;;22.10;60.90;;;;;;5017093;28;20220;-51
2022/12/23 10:22:25;;;;;;;2.15;1.00;;;22.20;60.70;;;;;;5025059;28;20263;-50
2022/12/23 10:24:55;;;;;;;1.00;0.90;;;22.30;60.50;;;;;;5016590;28;20255;-49
2022/12/23 10:27:27;;;;;;;1.23;0.90;;;22.40;60.40;;;;;;5017977;28;20460;-49
2022/12/23 10:29:53;;;;;;;1.10;1.00;;;22.40;60.30;;;;;;5022569;28;20243;-47
2022/12/23 10:32:29;;;;;;;0.90;0.77;;;22.50;60.40;;;;;;5013110;28;20524;-49
2022/12/23 10:35:05;;;;;;;1.10;0.90;;;22.40;60.40;;;;;;5017094;28;20202;-50
2022/12/23 10:37:38;;;;;;;1.00;0.80;;;22.40;60.70;;;;;;5030415;28;20566;-50
2022/12/23 10:40:15;;;;;;;1.20;1.00;;;22.40;60.80;;;;;;5015175;28;20206;-50
2022/12/23 10:42:51;;;;;;;3.17;0.90;;;22.40;60.90;;;;;;5030156;28;20220;-49
2022/12/23 10:45:38;;;;;;;1.08;0.98;;;22.40;61.00;;;;;;5032178;28;20200;-48
2022/12/23 10:48:18;;;;;;;2.17;1.10;;;22.30;61.00;;;;;;5026370;28;20231;-48
2022/12/23 10:50:53;;;;;;;1.13;0.95;;;22.30;61.10;;;;;;5026669;28;20231;-50
2022/12/23 10:53:32;;;;;;;1.20;1.10;;;22.30;61.20;;;;;;5019888;28;20718;-50
2022/12/23 10:56:00;;;;;;;1.92;0.90;;;22.30;61.00;;;;;;5029183;28;20649;-44
2022/12/23 10:58:27;;;;;;;1.40;1.15;;;22.30;61.20;;;;;;5031197;28;20257;-48
2022/12/23 11:00:55;;;;;;;1.42;1.10;;;22.30;61.20;;;;;;5023826;28;20242;-50
2022/12/23 11:03:28;;;;;;;1.20;0.90;;;22.40;61.50;;;;;;5026205;28;20259;-49
2022/12/23 11:05:56;;;;;;;1.38;1.10;;;22.50;61.50;;;;;;5019264;28;20203;-50
2022/12/23 11:08:25;;;;;;;1.10;0.95;;;22.60;61.60;;;;;;5017103;28;20205;-50
2022/12/23 11:10:53;;;;;;;1.00;0.90;;;22.60;61.40;;;;;;5020601;28;20726;-52
2022/12/23 11:13:25;;;;;;;2.07;0.90;;;22.70;61.20;;;;;;5023586;28;20228;-51
2022/12/23 11:15:52;;;;;;;1.20;1.00;;;22.80;61.30;;;;;;5027759;28;20460;-51
2022/12/23 11:18:20;;;;;;;1.20;0.90;;;22.80;61.20;;;;;;5029176;28;20287;-49
2022/12/23 11:21:02;;;;;;;1.30;0.90;;;22.80;61.10;;;;;;5019372;28;20502;-53
2022/12/23 11:23:31;;;;;;;3.55;1.20;;;22.90;61.10;;;;;;5025455;28;20248;-51
2022/12/23 11:26:01;;;;;;;1.13;1.02;;;22.90;61.10;;;;;;5012609;28;20240;-47
2022/12/23 11:28:29;;;;;;;1.08;0.98;;;22.90;61.00;;;;;;5025711;28;20610;-49
2022/12/23 11:30:58;;;;;;;1.58;1.00;;;22.90;61.00;;;;;;5021727;28;20551;-52
2022/12/23 11:33:27;;;;;;;1.10;0.98;;;22.90;61.10;;;;;;5023546;28;20227;-45
2022/12/23 11:36:04;;;;;;;1.25;1.10;;;22.90;61.20;;;;;;5019634;28;20215;-54
2022/12/23 11:38:31;;;;;;;1.40;1.10;;;22.90;61.20;;;;;;5016837;28;20567;-48
2022/12/23 11:40:58;;;;;;;1.10;1.00;;;22.90;61.30;;;;;;5014162;28;20451;-50
2022/12/23 11:43:27;;;;;;;2.30;1.10;;;22.90;61.30;;;;;;5035807;28;20253;-55
2022/12/23 11:46:16;;;;;;;1.10;0.80;;;22.90;61.30;;;;;;5022186;28;20466;-49
2022/12/23 11:48:42;;;;;;;2.30;1.02;;;22.90;61.40;;;;;;5019591;28;20200;-49
2022/12/23 11:51:10;;;;;;;1.00;0.80;;;22.90;61.40;;;;;;5018724;28;20206;-52
2022/12/23 11:53:42;;;;;;;0.90;0.70;;;22.90;61.40;;;;;;5020973;28;20528;-48
2022/12/23 11:56:12;;;;;;;1.97;1.37;;;22.90;61.50;;;;;;5019983;28;20460;-52
2022/12/23 11:58:45;;;;;;;2.00;1.10;;;22.90;61.60;;;;;;5027902;28;20545;-52
2022/12/23 12:01:19;;;;;;;1.50;0.83;;;22.90;61.70;;;;;;5021776;28;20578;-45
2022/12/23 12:03:50;;;;;;;1.20;1.00;;;22.90;61.70;;;;;;5019812;28;20525;-47
2022/12/23 12:06:20;;;;;;;1.00;0.90;;;22.90;61.80;;;;;;5020466;28;20733;-47
2022/12/23 12:08:50;;;;;;;1.10;0.90;;;22.90;61.80;;;;;;5017117;28;20463;-48
2022/12/23 12:11:18;;;;;;;1.05;0.80;;;22.90;61.90;;;;;;5018404;28;20458;-53
2022/12/23 12:13:48;;;;;;;1.10;0.80;;;22.90;61.90;;;;;;5019234;28;20261;-50
2022/12/23 12:16:40;;;;;;;1.10;1.00;;;22.90;61.90;;;;;;5017403;28;20459;-45
2022/12/23 12:19:12;;;;;;;1.88;1.20;;;22.90;61.60;;;;;;5014926;28;20223;-47
2022/12/23 12:21:40;;;;;;;1.20;1.10;;;22.60;62.10;;;;;;5017860;28;20284;-48
2022/12/23 12:24:15;;;;;;;1.58;1.20;;;22.30;62.80;;;;;;5018336;28;20680;-46
2022/12/23 12:26:45;;;;;;;1.40;1.00;;;22.30;63.20;;;;;;5012789;28;20775;-53
2022/12/23 12:29:16;;;;;;;3.33;1.10;;;22.30;63.30;;;;;;5008139;28;20198;-58
2022/12/23 12:31:48;;;;;;;1.52;1.10;;;22.30;63.40;;;;;;5022650;28;20246;-51
2022/12/23 12:34:28;;;;;;;1.50;0.95;;;22.60;63.50;;;;;;5011831;28;20208;-56
2022/12/23 12:37:01;;;;;;;4.83;1.10;;;22.70;62.90;;;;;;5014238;28;20229;-53
2022/12/23 12:39:32;;;;;;;1.23;0.90;;;22.80;62.70;;;;;;5011550;28;20522;-50
2022/12/23 12:42:02;;;;;;;1.10;1.00;;;22.90;62.70;;;;;;5013769;28;20529;-46
2022/12/23 12:44:37;;;;;;;2.97;1.10;;;22.90;62.50;;;;;;5013611;28;20940;-44
2022/12/23 12:47:10;;;;;;;1.10;1.00;;;22.90;63.40;;;;;;5020467;28;20243;-49
2022/12/23 12:49:43;;;;;;;1.03;0.93;;;22.90;62.80;;;;;;5017372;28;20860;-49
2022/12/23 12:52:14;;;;;;;1.20;1.10;;;22.90;62.90;;;;;;5026283;28;20486;-57
2022/12/23 12:54:49;;;;;;;1.50;1.10;;;23.00;63.10;;;;;;5016926;28;20202;-56
2022/12/23 12:57:19;;;;;;;1.00;0.83;;;23.00;63.10;;;;;;5029653;28;20451;-61
2022/12/23 12:59:48;;;;;;;1.10;1.00;;;23.00;63.20;;;;;;5016790;28;20452;-49
2022/12/23 13:02:28;;;;;;;1.07;0.90;;;23.00;63.20;;;;;;5014860;28;20478;-46
2022/12/23 13:05:24;;;;;;;1.10;0.93;;;23.00;63.20;;;;;;5023092;28;20455;-51
2022/12/23 13:08:07;;;;;;;1.23;1.00;;;23.00;63.20;;;;;;5029325;28;20200;-46
2022/12/23 13:10:43;;;;;;;1.40;1.20;;;22.80;63.40;;;;;;5027642;28;20208;-50
2022/12/23 13:13:23;;;;;;;7.27;1.10;;;22.70;63.70;;;;;;5032099;28;20719;-47
2022/12/23 13:15:58;;;;;;;1.77;1.20;;;22.70;63.70;;;;;;5025344;28;20463;-47
2022/12/23 13:18:35;;;;;;;1.10;1.00;;;22.70;63.80;;;;;;5028054;28;20458;-43
2022/12/23 13:21:09;;;;;;;1.10;1.00;;;22.60;63.50;;;;;;5023233;28;20628;-50
2022/12/23 13:23:44;;;;;;;1.85;1.10;;;22.60;63.60;;;;;;5020747;28;20476;-48
2022/12/23 13:26:21;;;;;;;1.40;1.10;;;22.60;63.50;;;;;;5026191;28;20668;-53
2022/12/23 13:28:57;;;;;;;1.60;0.90;;;22.60;63.50;;;;;;5031691;28;20470;-48
2022/12/23 13:31:33;;;;;;;1.08;0.90;;;22.50;63.50;;;;;;5031833;28;20188;-48
2022/12/23 13:34:19;;;;;;;1.93;1.10;;;22.50;63.50;;;;;;5026729;28;20855;-52